createdAt,value
2022-11-07T00:00:35.908Z,8.91
2022-11-07T00:01:35.961Z,9.00
2022-11-07T00:02:35.953Z,8.94
2022-11-07T00:03:36.194Z,8.91
2022-11-07T00:04:35.882Z,8.94
2022-11-07T00:05:35.861Z,8.92
2022-11-07T00:06:35.855Z,8.95
2022-11-07T00:07:35.830Z,8.95
2022-11-07T00:08:35.843Z,8.84
2022-11-07T00:09:35.823Z,8.89
2022-11-07T00:10:35.815Z,8.76
2022-11-07T00:11:35.799Z,8.78
2022-11-07T00:12:35.783Z,8.71
2022-11-07T00:13:35.756Z,8.64
2022-11-07T00:14:35.771Z,8.61
2022-11-07T00:15:35.761Z,8.63
2022-11-07T00:16:35.744Z,8.60
2022-11-07T00:17:35.728Z,8.46
2022-11-07T00:18:35.719Z,8.56
2022-11-07T00:19:35.700Z,8.55
2022-11-07T00:20:35.695Z,8.48
2022-11-07T00:21:35.692Z,8.56
2022-11-07T00:22:35.672Z,8.49
2022-11-07T00:23:35.671Z,8.45
2022-11-07T00:24:35.685Z,8.31
2022-11-07T00:25:35.650Z,8.30
2022-11-07T00:26:35.642Z,8.28
2022-11-07T00:27:35.683Z,8.34
2022-11-07T00:28:35.613Z,8.34
2022-11-07T00:29:35.614Z,8.31
2022-11-07T00:30:35.584Z,8.27
2022-11-07T00:31:35.576Z,8.20
2022-11-07T00:32:35.553Z,8.27
2022-11-07T00:33:35.544Z,8.23
2022-11-07T00:34:35.552Z,8.12
2022-11-07T00:35:35.725Z,8.10
2022-11-07T00:36:35.519Z,8.05
2022-11-07T00:37:35.512Z,8.03
2022-11-07T00:38:35.500Z,8.03
2022-11-07T00:39:35.903Z,7.97
2022-11-07T00:40:35.511Z,7.98
2022-11-07T00:41:35.482Z,7.95
2022-11-07T00:42:35.466Z,8.05
2022-11-07T00:43:35.456Z,8.09
2022-11-07T00:44:35.449Z,8.05
2022-11-07T00:45:35.438Z,8.12
2022-11-07T00:46:35.403Z,8.15
2022-11-07T00:47:35.450Z,8.12
2022-11-07T00:48:35.391Z,8.01
2022-11-07T00:49:35.389Z,8.12
2022-11-07T00:50:35.368Z,8.06
2022-11-07T00:51:35.356Z,8.05
2022-11-07T00:52:35.576Z,7.97
2022-11-07T00:53:35.353Z,7.97
2022-11-07T00:54:35.332Z,7.87
2022-11-07T00:55:35.326Z,7.88
2022-11-07T00:56:35.332Z,7.80
2022-11-07T00:57:35.292Z,7.83
2022-11-07T00:58:35.285Z,7.76
2022-11-07T00:59:35.288Z,7.76
2022-11-07T01:00:35.265Z,7.76
2022-11-07T01:01:35.495Z,7.63
2022-11-07T01:02:35.385Z,7.69
2022-11-07T01:03:35.224Z,7.69
2022-11-07T01:04:35.238Z,7.61
2022-11-07T01:05:35.222Z,7.51
2022-11-07T01:06:35.198Z,7.61
2022-11-07T01:07:35.194Z,7.51
2022-11-07T01:08:35.206Z,7.54
2022-11-07T01:09:35.168Z,7.57
2022-11-07T01:10:35.163Z,7.53
2022-11-07T01:11:35.165Z,7.50
2022-11-07T01:12:35.167Z,7.57
2022-11-07T01:13:35.120Z,7.54
2022-11-07T01:14:35.125Z,7.53
2022-11-07T01:15:35.306Z,7.57
2022-11-07T01:16:35.086Z,7.54
2022-11-07T01:17:35.080Z,7.58
2022-11-07T01:18:35.091Z,7.63
2022-11-07T01:19:35.266Z,7.63
2022-11-07T01:20:35.046Z,7.61
2022-11-07T01:21:35.043Z,7.53
2022-11-07T01:22:35.025Z,7.60
2022-11-07T01:23:35.017Z,7.58
2022-11-07T01:24:35.003Z,7.66
2022-11-07T01:25:35.000Z,7.58
2022-11-07T01:26:34.977Z,7.63
2022-11-07T01:27:34.981Z,7.63
2022-11-07T01:28:35.107Z,7.67
2022-11-07T01:29:34.939Z,7.69
2022-11-07T01:30:34.932Z,7.58
2022-11-07T01:31:34.917Z,7.58
2022-11-07T01:32:34.922Z,7.61
2022-11-07T01:33:34.918Z,7.67
2022-11-07T01:34:34.890Z,7.63
2022-11-07T01:35:34.903Z,7.67
2022-11-07T01:36:34.889Z,7.61
2022-11-07T01:37:34.858Z,7.63
2022-11-07T01:38:34.855Z,7.57
2022-11-07T01:39:34.842Z,7.54
2022-11-07T01:40:34.846Z,7.47
2022-11-07T01:41:34.818Z,7.50
2022-11-07T01:42:34.842Z,7.39
2022-11-07T01:43:34.816Z,7.39
2022-11-07T01:44:34.821Z,7.29
2022-11-07T01:45:34.777Z,7.31
2022-11-07T01:46:34.759Z,7.29
2022-11-07T01:47:34.779Z,7.29
2022-11-07T01:48:34.787Z,7.24
2022-11-07T01:49:34.731Z,7.15
2022-11-07T01:50:34.726Z,7.21
2022-11-07T01:51:34.729Z,7.20
2022-11-07T01:52:34.713Z,7.18
2022-11-07T01:53:34.694Z,7.14
2022-11-07T01:54:34.667Z,7.14
2022-11-07T01:55:34.664Z,7.17
2022-11-07T01:56:34.669Z,7.11
2022-11-07T01:57:34.641Z,7.14
2022-11-07T01:58:34.635Z,7.11
2022-11-07T01:59:34.641Z,7.17
2022-11-07T02:00:34.624Z,7.17
2022-11-07T02:01:34.727Z,7.15
2022-11-07T02:02:34.772Z,7.14
2022-11-07T02:03:34.586Z,7.13
2022-11-07T02:04:34.592Z,7.18
2022-11-07T02:05:34.575Z,7.05
2022-11-07T02:06:34.544Z,7.10
2022-11-07T02:07:34.535Z,7.15
2022-11-07T02:08:34.542Z,7.05
2022-11-07T02:09:34.498Z,7.18
2022-11-07T02:10:34.492Z,7.21
2022-11-07T02:11:34.496Z,7.20
2022-11-07T02:12:34.468Z,7.33
2022-11-07T02:13:34.455Z,7.40
2022-11-07T02:14:34.434Z,7.42
2022-11-07T02:15:34.428Z,7.36
2022-11-07T02:16:34.438Z,7.39
2022-11-07T02:17:34.428Z,7.42
2022-11-07T02:18:34.410Z,7.42
2022-11-07T02:19:34.424Z,7.43
2022-11-07T02:20:34.414Z,7.36
2022-11-07T02:21:34.528Z,7.35
2022-11-07T02:22:34.390Z,7.35
2022-11-07T02:23:34.383Z,7.36
2022-11-07T02:24:34.367Z,7.28
2022-11-07T02:25:34.327Z,7.38
2022-11-07T02:26:34.314Z,7.43
2022-11-07T02:27:34.315Z,7.51
2022-11-07T02:28:34.507Z,7.60
2022-11-07T02:29:34.272Z,7.63
2022-11-07T02:30:34.291Z,7.63
2022-11-07T02:31:34.260Z,7.61
2022-11-07T02:32:34.269Z,7.82
2022-11-07T02:33:34.235Z,7.66
2022-11-07T02:34:34.426Z,7.79
2022-11-07T02:35:34.217Z,7.82
2022-11-07T02:36:34.204Z,7.76
2022-11-07T02:37:34.209Z,7.80
2022-11-07T02:38:34.191Z,7.79
2022-11-07T02:39:34.162Z,7.75
2022-11-07T02:40:34.160Z,7.73
2022-11-07T02:41:34.340Z,7.76
2022-11-07T02:42:34.130Z,7.77
2022-11-07T02:43:34.124Z,7.79
2022-11-07T02:44:34.116Z,7.79
2022-11-07T02:45:34.100Z,7.93
2022-11-07T02:46:34.083Z,7.88
2022-11-07T02:47:34.089Z,7.90
2022-11-07T02:48:34.099Z,8.01
2022-11-07T02:49:34.071Z,8.01
2022-11-07T02:50:34.046Z,8.13
2022-11-07T02:51:34.031Z,8.26
2022-11-07T02:52:34.026Z,8.23
2022-11-07T02:53:34.016Z,8.20
2022-11-07T02:54:33.999Z,8.37
2022-11-07T02:55:34.210Z,8.42
2022-11-07T02:56:33.985Z,8.41
2022-11-07T02:57:33.969Z,8.41
2022-11-07T02:58:33.966Z,8.37
2022-11-07T02:59:34.052Z,8.46
2022-11-07T03:00:33.934Z,8.46
2022-11-07T03:01:34.394Z,8.42
2022-11-07T03:02:34.046Z,8.46
2022-11-07T03:03:33.928Z,8.71
2022-11-07T03:04:33.933Z,8.63
2022-11-07T03:05:33.873Z,8.66
2022-11-07T03:06:33.868Z,8.55
2022-11-07T03:07:33.877Z,8.56
2022-11-07T03:08:33.832Z,8.51
2022-11-07T03:09:33.831Z,8.51
2022-11-07T03:10:33.815Z,8.48
2022-11-07T03:11:33.804Z,8.49
2022-11-07T03:12:33.806Z,8.45
2022-11-07T03:13:33.780Z,8.46
2022-11-07T03:14:33.864Z,8.42
2022-11-07T03:15:33.772Z,8.42
2022-11-07T03:16:33.786Z,8.46
2022-11-07T03:17:33.760Z,8.45
2022-11-07T03:18:33.762Z,8.55
2022-11-07T03:19:33.729Z,8.63
2022-11-07T03:20:33.837Z,8.63
2022-11-07T03:21:33.699Z,8.67
2022-11-07T03:22:33.690Z,8.70
2022-11-07T03:23:33.670Z,8.73
2022-11-07T03:24:33.886Z,8.82
2022-11-07T03:25:33.659Z,8.79
2022-11-07T03:26:33.851Z,8.81
2022-11-07T03:27:33.646Z,8.74
2022-11-07T03:28:33.634Z,8.78
2022-11-07T03:29:33.615Z,8.69
2022-11-07T03:30:33.603Z,8.73
2022-11-07T03:31:33.590Z,8.64
2022-11-07T03:32:33.586Z,8.67
2022-11-07T03:33:33.577Z,8.63
2022-11-07T03:34:33.570Z,8.61
2022-11-07T03:35:33.540Z,8.48
2022-11-07T03:36:33.551Z,8.42
2022-11-07T03:37:33.527Z,8.46
2022-11-07T03:38:33.516Z,8.45
2022-11-07T03:39:33.510Z,8.31
2022-11-07T03:40:33.490Z,8.33
2022-11-07T03:41:33.478Z,8.24
2022-11-07T03:42:33.468Z,8.24
2022-11-07T03:43:33.463Z,8.20
2022-11-07T03:44:33.449Z,8.20
2022-11-07T03:45:33.437Z,8.16
2022-11-07T03:46:33.426Z,8.26
2022-11-07T03:47:33.425Z,8.10
2022-11-07T03:48:33.401Z,8.10
2022-11-07T03:49:33.404Z,8.13
2022-11-07T03:50:33.380Z,8.12
2022-11-07T03:51:33.376Z,8.09
2022-11-07T03:52:33.623Z,8.16
2022-11-07T03:53:33.373Z,8.13
2022-11-07T03:54:33.353Z,8.24
2022-11-07T03:55:33.360Z,8.26
2022-11-07T03:56:33.350Z,8.20
2022-11-07T03:57:33.373Z,8.10
2022-11-07T03:58:33.532Z,8.24
2022-11-07T03:59:33.366Z,8.08
2022-11-07T04:00:33.282Z,8.13
2022-11-07T04:01:33.399Z,8.09
2022-11-07T04:03:33.285Z,8.13
2022-11-07T04:04:33.279Z,8.12
2022-11-07T04:05:33.236Z,8.12
2022-11-07T04:06:33.294Z,8.15
2022-11-07T04:07:33.221Z,8.09
2022-11-07T04:08:33.316Z,8.08
2022-11-07T04:09:33.229Z,8.10
2022-11-07T04:10:33.205Z,8.05
2022-11-07T04:11:33.193Z,8.13
2022-11-07T04:12:33.247Z,8.16
2022-11-07T04:13:33.142Z,8.15
2022-11-07T04:14:33.346Z,8.13
2022-11-07T04:15:33.135Z,8.08
2022-11-07T04:16:33.145Z,8.09
2022-11-07T04:17:33.126Z,8.09
2022-11-07T04:18:33.080Z,8.26
2022-11-07T04:19:33.085Z,8.23
2022-11-07T04:20:33.085Z,8.27
2022-11-07T04:21:33.086Z,8.34
2022-11-07T04:22:33.079Z,8.34
2022-11-07T04:23:33.120Z,8.37
2022-11-07T04:24:33.079Z,8.38
2022-11-07T04:25:33.041Z,8.37
2022-11-07T04:26:33.008Z,8.46
2022-11-07T04:27:33.007Z,8.37
2022-11-07T04:28:32.987Z,8.37
2022-11-07T04:29:33.009Z,8.48
2022-11-07T04:30:32.996Z,8.49
2022-11-07T04:31:32.984Z,8.46
2022-11-07T04:32:32.968Z,8.52
2022-11-07T04:33:32.945Z,8.51
2022-11-07T04:34:32.940Z,8.53
2022-11-07T04:35:32.924Z,8.49
2022-11-07T04:36:33.135Z,8.63
2022-11-07T04:37:32.928Z,8.79
2022-11-07T04:38:32.899Z,8.81
2022-11-07T04:39:32.952Z,8.81
2022-11-07T04:40:32.916Z,8.81
2022-11-07T04:41:32.863Z,8.85
2022-11-07T04:42:32.837Z,8.81
2022-11-07T04:43:32.836Z,8.69
2022-11-07T04:44:32.848Z,8.74
2022-11-07T04:45:32.845Z,8.71
2022-11-07T04:46:32.803Z,8.67
2022-11-07T04:47:35.352Z,8.58
2022-11-07T04:48:32.812Z,8.58
2022-11-07T04:49:32.753Z,8.60
2022-11-07T04:50:32.825Z,8.53
2022-11-07T04:51:32.776Z,8.46
2022-11-07T04:52:32.799Z,8.46
2022-11-07T04:53:32.784Z,8.42
2022-11-07T04:54:32.772Z,8.38
2022-11-07T04:55:32.720Z,8.38
2022-11-07T04:56:34.599Z,8.30
2022-11-07T04:57:32.726Z,8.26
2022-11-07T04:58:32.689Z,8.30
2022-11-07T04:59:32.875Z,8.24
2022-11-07T05:00:32.749Z,8.20
2022-11-07T05:01:32.694Z,8.27
2022-11-07T05:02:32.813Z,8.23
2022-11-07T05:03:35.197Z,8.10
2022-11-07T05:04:32.631Z,8.16
2022-11-07T05:05:32.618Z,8.09
2022-11-07T05:06:32.618Z,8.09
2022-11-07T05:07:32.666Z,8.05
2022-11-07T05:08:32.586Z,8.05
2022-11-07T05:09:32.600Z,8.08
2022-11-07T05:10:32.537Z,8.03
2022-11-07T05:11:32.588Z,8.00
2022-11-07T05:12:32.552Z,8.05
2022-11-07T05:13:32.521Z,8.03
2022-11-07T05:14:32.524Z,8.09
2022-11-07T05:15:32.688Z,8.01
2022-11-07T05:16:32.682Z,7.95
2022-11-07T05:17:32.486Z,7.98
2022-11-07T05:18:32.463Z,8.05
2022-11-07T05:19:32.465Z,8.00
2022-11-07T05:20:32.459Z,8.06
2022-11-07T05:21:32.448Z,8.06
2022-11-07T05:22:32.425Z,8.00
2022-11-07T05:23:32.439Z,7.98
2022-11-07T05:24:32.482Z,8.09
2022-11-07T05:25:32.421Z,8.03
2022-11-07T05:26:32.355Z,8.15
2022-11-07T05:27:32.360Z,8.09
2022-11-07T05:28:38.683Z,8.09
2022-11-07T05:29:32.336Z,8.13
2022-11-07T05:30:32.321Z,8.09
2022-11-07T05:31:32.331Z,8.10
2022-11-07T05:32:32.356Z,8.13
2022-11-07T05:33:32.299Z,8.13
2022-11-07T05:34:32.286Z,8.12
2022-11-07T05:35:32.263Z,8.16
2022-11-07T05:36:32.286Z,8.20
2022-11-07T05:37:32.301Z,8.33
2022-11-07T05:38:32.227Z,8.45
2022-11-07T05:39:32.236Z,8.38
2022-11-07T05:40:32.221Z,8.42
2022-11-07T05:41:32.214Z,8.51
2022-11-07T05:42:32.203Z,8.44
2022-11-07T05:43:32.173Z,8.37
2022-11-07T05:44:32.218Z,8.36
2022-11-07T05:45:32.177Z,8.33
2022-11-07T05:46:32.186Z,8.30
2022-11-07T05:47:32.147Z,8.28
2022-11-07T05:48:32.151Z,8.23
2022-11-07T05:49:32.315Z,8.27
2022-11-07T05:50:32.098Z,8.28
2022-11-07T05:51:32.112Z,8.28
2022-11-07T05:52:32.106Z,8.23
2022-11-07T05:53:32.175Z,8.10
2022-11-07T05:54:32.270Z,8.09
2022-11-07T05:55:32.066Z,8.12
2022-11-07T05:56:32.053Z,8.09
2022-11-07T05:57:32.047Z,8.08
2022-11-07T05:58:32.031Z,8.09
2022-11-07T05:59:32.005Z,8.03
2022-11-07T06:00:32.006Z,8.00
2022-11-07T06:01:32.206Z,8.05
2022-11-07T06:02:32.402Z,8.00
2022-11-07T06:03:31.959Z,8.00
2022-11-07T06:04:31.960Z,7.97
2022-11-07T06:05:31.955Z,7.91
2022-11-07T06:06:32.759Z,7.95
2022-11-07T06:07:31.920Z,7.93
2022-11-07T06:08:31.941Z,7.91
2022-11-07T06:09:31.907Z,7.91
2022-11-07T06:10:31.891Z,7.97
2022-11-07T06:11:31.873Z,7.85
2022-11-07T06:12:31.896Z,7.88
2022-11-07T06:13:31.882Z,7.88
2022-11-07T06:14:31.871Z,7.88
2022-11-07T06:15:31.830Z,7.90
2022-11-07T06:16:31.833Z,7.93
2022-11-07T06:17:31.829Z,7.90
2022-11-07T06:18:31.797Z,7.85
2022-11-07T06:19:31.993Z,7.87
2022-11-07T06:20:31.781Z,7.87
2022-11-07T06:21:31.758Z,7.93
2022-11-07T06:22:31.775Z,7.76
2022-11-07T06:23:31.741Z,7.76
2022-11-07T06:24:31.732Z,7.87
2022-11-07T06:25:31.739Z,7.76
2022-11-07T06:26:31.708Z,7.73
2022-11-07T06:27:31.708Z,7.85
2022-11-07T06:28:31.733Z,7.85
2022-11-07T06:29:31.684Z,7.85
2022-11-07T06:30:31.707Z,7.95
2022-11-07T06:31:31.872Z,8.01
2022-11-07T06:32:31.662Z,8.18
2022-11-07T06:33:31.646Z,8.23
2022-11-07T06:34:31.626Z,8.34
2022-11-07T06:35:31.621Z,8.45
2022-11-07T06:36:31.616Z,8.76
2022-11-07T06:37:31.608Z,8.87
2022-11-07T06:38:31.591Z,9.03
2022-11-07T06:39:31.573Z,9.08
2022-11-07T06:40:31.764Z,9.14
2022-11-07T06:41:31.559Z,9.19
2022-11-07T06:42:31.548Z,9.21
2022-11-07T06:43:33.828Z,9.14
2022-11-07T06:44:31.551Z,9.14
2022-11-07T06:45:31.510Z,9.18
2022-11-07T06:46:31.500Z,9.14
2022-11-07T06:47:31.474Z,9.19
2022-11-07T06:48:31.575Z,9.18
2022-11-07T06:49:31.460Z,9.29
2022-11-07T06:50:31.450Z,9.23
2022-11-07T06:51:31.435Z,9.29
2022-11-07T06:52:31.435Z,9.32
2022-11-07T06:53:31.413Z,9.40
2022-11-07T06:54:31.492Z,9.55
2022-11-07T06:55:31.400Z,9.61
2022-11-07T06:56:31.405Z,9.73
2022-11-07T06:57:31.371Z,9.79
2022-11-07T06:58:31.378Z,9.91
2022-11-07T06:59:31.374Z,9.94
2022-11-07T07:00:31.947Z,9.99
2022-11-07T07:01:31.445Z,10.09
2022-11-07T07:02:56.931Z,10.04
2022-11-07T07:03:31.304Z,10.12
2022-11-07T07:04:31.320Z,10.13
2022-11-07T07:05:31.292Z,10.16
2022-11-07T07:06:31.282Z,10.10
2022-11-07T07:07:31.266Z,10.09
2022-11-07T07:08:31.458Z,10.22
2022-11-07T07:09:31.244Z,10.17
2022-11-07T07:10:31.306Z,10.15
2022-11-07T07:11:31.231Z,10.02
2022-11-07T07:12:31.218Z,10.07
2022-11-07T07:13:31.217Z,10.12
2022-11-07T07:14:31.214Z,10.02
2022-11-07T07:15:47.521Z,10.12
2022-11-07T07:16:31.166Z,10.15
2022-11-07T07:17:31.170Z,10.10
2022-11-07T07:18:31.355Z,10.22
2022-11-07T07:19:31.154Z,10.20
2022-11-07T07:20:31.243Z,10.16
2022-11-07T07:21:31.259Z,10.28
2022-11-07T07:22:31.111Z,10.25
2022-11-07T07:23:31.109Z,10.16
2022-11-07T07:24:31.096Z,10.19
2022-11-07T07:25:31.137Z,10.17
2022-11-07T07:26:31.126Z,10.26
2022-11-07T07:27:31.084Z,10.17
2022-11-07T07:28:31.060Z,10.34
2022-11-07T07:29:31.061Z,10.54
2022-11-07T07:30:31.065Z,10.89
2022-11-07T07:31:31.036Z,11.17
2022-11-07T07:32:31.006Z,11.35
2022-11-07T07:33:30.999Z,11.57
2022-11-07T07:34:31.006Z,11.84
2022-11-07T07:35:30.996Z,12.03
2022-11-07T07:36:31.304Z,12.20
2022-11-07T07:37:30.967Z,12.31
2022-11-07T07:38:30.947Z,12.22
2022-11-07T07:39:30.970Z,12.09
2022-11-07T07:40:30.942Z,12.10
2022-11-07T07:41:33.004Z,11.99
2022-11-07T07:42:30.938Z,11.94
2022-11-07T07:43:30.930Z,11.90
2022-11-07T07:44:30.915Z,11.97
2022-11-07T07:45:30.916Z,12.09
2022-11-07T07:46:30.986Z,12.20
2022-11-07T07:47:30.866Z,12.18
2022-11-07T07:48:30.857Z,12.21
2022-11-07T07:49:30.851Z,12.21
2022-11-07T07:50:30.848Z,12.29
2022-11-07T07:51:30.834Z,12.28
2022-11-07T07:52:30.958Z,12.35
2022-11-07T07:53:30.816Z,12.54
2022-11-07T07:54:30.810Z,12.76
2022-11-07T07:55:30.831Z,13.15
2022-11-07T07:56:30.795Z,13.47
2022-11-07T07:57:30.788Z,13.71
2022-11-07T07:58:30.833Z,14.12
2022-11-07T07:59:30.843Z,14.35
2022-11-07T08:00:30.775Z,15.07
2022-11-07T08:01:30.900Z,15.68
2022-11-07T08:02:30.810Z,16.01
2022-11-07T08:03:50.678Z,16.16
2022-11-07T08:04:30.742Z,15.40
2022-11-07T08:05:30.782Z,14.78
2022-11-07T08:06:30.753Z,15.18
2022-11-07T08:07:30.719Z,15.10
2022-11-07T08:08:36.828Z,15.27
2022-11-07T08:09:30.705Z,15.40
2022-11-07T08:10:46.411Z,15.91
2022-11-07T08:11:30.688Z,16.51
2022-11-07T08:12:30.685Z,16.99
2022-11-07T08:13:30.675Z,17.01
2022-11-07T08:14:30.664Z,16.94
2022-11-07T08:15:30.659Z,17.41
2022-11-07T08:16:30.874Z,17.48
2022-11-07T08:17:30.645Z,17.56
2022-11-07T08:18:30.708Z,17.59
2022-11-07T08:19:30.821Z,17.95
2022-11-07T08:20:30.634Z,18.19
2022-11-07T08:21:30.634Z,18.41
2022-11-07T08:22:30.996Z,18.34
2022-11-07T08:23:30.640Z,17.82
2022-11-07T08:24:30.743Z,17.83
2022-11-07T08:25:30.620Z,17.85
2022-11-07T08:26:30.605Z,17.59
2022-11-07T08:27:30.616Z,17.85
2022-11-07T08:28:30.608Z,18.03
2022-11-07T08:29:30.587Z,17.94
2022-11-07T08:30:30.606Z,17.82
2022-11-07T08:31:30.600Z,17.89
2022-11-07T08:32:30.699Z,17.71
2022-11-07T08:33:30.679Z,17.82
2022-11-07T08:34:30.577Z,18.04
2022-11-07T08:35:30.571Z,18.00
2022-11-07T08:36:30.565Z,18.20
2022-11-07T08:37:30.560Z,18.59
2022-11-07T08:38:30.559Z,18.23
2022-11-07T08:39:30.558Z,18.45
2022-11-07T08:40:30.577Z,18.78
2022-11-07T08:41:30.545Z,19.15
2022-11-07T08:42:30.575Z,19.34
2022-11-07T08:43:30.552Z,19.49
2022-11-07T08:44:30.541Z,19.40
2022-11-07T08:45:30.541Z,19.24
2022-11-07T08:46:30.536Z,19.07
2022-11-07T08:47:30.532Z,18.28
2022-11-07T08:48:30.528Z,17.87
2022-11-07T08:49:30.533Z,17.89
2022-11-07T08:50:30.513Z,17.86
2022-11-07T08:51:30.715Z,17.85
2022-11-07T08:52:30.716Z,17.54
2022-11-07T08:53:30.517Z,17.72
2022-11-07T08:54:30.666Z,17.22
2022-11-07T08:55:30.714Z,17.09
2022-11-07T08:56:30.514Z,16.99
2022-11-07T08:57:30.497Z,17.05
2022-11-07T08:58:30.595Z,16.99
2022-11-07T08:59:30.482Z,16.84
2022-11-07T09:00:30.495Z,16.78
2022-11-07T09:01:30.707Z,16.76
2022-11-07T09:03:44.693Z,17.42
2022-11-07T09:04:30.623Z,17.79
2022-11-07T09:05:30.473Z,17.57
2022-11-07T09:06:30.475Z,17.42
2022-11-07T09:07:30.484Z,17.23
2022-11-07T09:08:30.493Z,17.26
2022-11-07T09:09:30.497Z,17.16
2022-11-07T09:10:30.467Z,16.84
2022-11-07T09:11:30.450Z,16.58
2022-11-07T09:12:30.509Z,16.33
2022-11-07T09:13:30.457Z,16.00
2022-11-07T09:14:30.457Z,15.75
2022-11-07T09:15:30.454Z,15.68
2022-11-07T09:16:30.441Z,15.52
2022-11-07T09:17:30.612Z,15.33
2022-11-07T09:18:30.456Z,15.00
2022-11-07T09:19:30.442Z,14.66
2022-11-07T09:20:30.428Z,14.70
2022-11-07T09:21:30.418Z,14.63
2022-11-07T09:22:30.415Z,14.58
2022-11-07T09:23:30.412Z,14.60
2022-11-07T09:24:30.642Z,14.70
2022-11-07T09:25:30.490Z,14.79
2022-11-07T09:26:30.458Z,14.96
2022-11-07T09:27:30.460Z,15.17
2022-11-07T09:28:30.506Z,15.44
2022-11-07T09:29:30.426Z,15.76
2022-11-07T09:30:30.432Z,16.01
2022-11-07T09:31:30.425Z,16.16
2022-11-07T09:32:44.695Z,16.49
2022-11-07T09:33:30.391Z,16.56
2022-11-07T09:34:30.432Z,16.36
2022-11-07T09:35:30.395Z,16.13
2022-11-07T09:36:30.387Z,16.29
2022-11-07T09:37:30.388Z,16.69
2022-11-07T09:38:30.328Z,16.61
2022-11-07T09:39:30.421Z,16.94
2022-11-07T09:40:30.558Z,17.23
2022-11-07T09:41:30.407Z,17.44
2022-11-07T09:42:30.415Z,17.64
2022-11-07T09:43:30.334Z,17.87
2022-11-07T09:44:33.260Z,17.95
2022-11-07T09:45:30.345Z,18.08
2022-11-07T09:46:30.420Z,18.16
2022-11-07T09:47:30.357Z,18.16
2022-11-07T09:48:30.341Z,17.97
2022-11-07T09:49:30.413Z,17.72
2022-11-07T09:50:30.534Z,17.72
2022-11-07T09:51:30.377Z,17.72
2022-11-07T09:52:30.334Z,17.63
2022-11-07T09:53:30.324Z,17.49
2022-11-07T09:54:30.330Z,17.42
2022-11-07T09:55:30.309Z,17.39
2022-11-07T09:56:30.396Z,17.19
2022-11-07T09:57:30.310Z,16.97
2022-11-07T09:58:30.307Z,16.89
2022-11-07T09:59:30.266Z,16.72
2022-11-07T10:00:30.282Z,16.60
2022-11-07T10:01:30.432Z,16.54
2022-11-07T10:02:30.335Z,16.56
2022-11-07T10:03:30.274Z,16.47
2022-11-07T10:04:30.262Z,16.60
2022-11-07T10:05:30.242Z,16.74
2022-11-07T10:06:30.262Z,16.74
2022-11-07T10:07:30.251Z,16.65
2022-11-07T10:08:30.253Z,16.54
2022-11-07T10:09:30.231Z,16.46
2022-11-07T10:10:30.436Z,16.33
2022-11-07T10:11:30.312Z,16.16
2022-11-07T10:12:30.218Z,16.13
2022-11-07T10:13:30.223Z,15.97
2022-11-07T10:14:30.209Z,15.91
2022-11-07T10:15:30.202Z,15.88
2022-11-07T10:16:30.234Z,15.80
2022-11-07T10:17:30.189Z,15.65
2022-11-07T10:18:30.209Z,15.54
2022-11-07T10:19:30.197Z,15.37
2022-11-07T10:20:30.180Z,15.27
2022-11-07T10:21:37.752Z,15.37
2022-11-07T10:22:30.183Z,15.40
2022-11-07T10:23:30.184Z,15.43
2022-11-07T10:24:30.176Z,15.46
2022-11-07T10:25:30.169Z,15.49
2022-11-07T10:26:30.149Z,15.49
2022-11-07T10:27:32.856Z,15.47
2022-11-07T10:28:30.140Z,15.44
2022-11-07T10:29:30.345Z,15.40
2022-11-07T10:30:30.136Z,15.54
2022-11-07T10:31:30.182Z,15.54
2022-11-07T10:32:30.244Z,15.40
2022-11-07T10:33:30.324Z,15.43
2022-11-07T10:34:30.143Z,15.39
2022-11-07T10:35:30.301Z,15.37
2022-11-07T10:36:30.122Z,15.33
2022-11-07T10:37:30.092Z,15.35
2022-11-07T10:38:30.309Z,15.25
2022-11-07T10:39:30.194Z,15.25
2022-11-07T10:40:30.116Z,15.19
2022-11-07T10:41:30.292Z,15.19
2022-11-07T10:42:30.053Z,15.09
2022-11-07T10:43:30.076Z,15.06
2022-11-07T10:44:30.043Z,15.17
2022-11-07T10:45:30.025Z,15.02
2022-11-07T10:46:30.047Z,15.04
2022-11-07T10:47:30.029Z,14.96
2022-11-07T10:48:30.055Z,15.00
2022-11-07T10:49:30.019Z,14.97
2022-11-07T10:50:30.017Z,15.09
2022-11-07T10:51:29.999Z,15.07
2022-11-07T10:52:30.022Z,15.00
2022-11-07T10:53:29.986Z,14.97
2022-11-07T10:54:29.983Z,15.04
2022-11-07T10:55:29.991Z,14.99
2022-11-07T10:56:29.974Z,15.04
2022-11-07T10:57:30.177Z,14.91
2022-11-07T10:58:29.963Z,14.97
2022-11-07T10:59:35.639Z,14.94
2022-11-07T11:00:29.956Z,14.91
2022-11-07T11:01:30.124Z,14.89
2022-11-07T11:02:29.931Z,14.82
2022-11-07T11:03:43.147Z,14.78
2022-11-07T11:04:29.972Z,14.69
2022-11-07T11:05:29.920Z,14.70
2022-11-07T11:06:29.895Z,14.68
2022-11-07T11:07:29.942Z,14.58
2022-11-07T11:08:29.888Z,14.60
2022-11-07T11:09:29.927Z,14.69
2022-11-07T11:10:29.880Z,14.48
2022-11-07T11:11:29.857Z,14.58
2022-11-07T11:12:32.173Z,14.60
2022-11-07T11:13:29.865Z,14.58
2022-11-07T11:14:29.854Z,14.63
2022-11-07T11:15:35.364Z,14.62
2022-11-07T11:16:29.849Z,14.60
2022-11-07T11:17:29.871Z,14.68
2022-11-07T11:18:29.846Z,14.65
2022-11-07T11:19:30.003Z,14.66
2022-11-07T11:20:29.849Z,14.65
2022-11-07T11:21:29.812Z,14.70
2022-11-07T11:22:29.830Z,14.84
2022-11-07T11:23:29.791Z,14.89
2022-11-07T11:24:29.795Z,14.92
2022-11-07T11:25:29.790Z,14.85
2022-11-07T11:26:29.787Z,14.85
2022-11-07T11:27:29.758Z,14.81
2022-11-07T11:28:29.739Z,14.82
2022-11-07T11:29:29.751Z,14.88
2022-11-07T11:30:29.740Z,14.89
2022-11-07T11:31:29.781Z,14.92
2022-11-07T11:32:29.732Z,14.94
2022-11-07T11:33:29.740Z,14.85
2022-11-07T11:34:29.723Z,14.96
2022-11-07T11:35:29.715Z,15.04
2022-11-07T11:36:29.767Z,15.00
2022-11-07T11:37:29.690Z,15.02
2022-11-07T11:38:29.696Z,15.00
2022-11-07T11:39:29.674Z,15.07
2022-11-07T11:40:29.687Z,15.06
2022-11-07T11:41:29.650Z,14.92
2022-11-07T11:42:29.676Z,15.03
2022-11-07T11:43:29.647Z,14.94
2022-11-07T11:44:29.639Z,14.86
2022-11-07T11:45:29.636Z,14.89
2022-11-07T11:46:29.636Z,14.82
2022-11-07T11:47:34.390Z,14.79
2022-11-07T11:48:29.625Z,14.91
2022-11-07T11:49:29.605Z,14.81
2022-11-07T11:50:29.601Z,14.72
2022-11-07T11:51:29.582Z,14.70
2022-11-07T11:52:29.619Z,14.77
2022-11-07T11:53:29.552Z,14.78
2022-11-07T11:54:29.553Z,14.72
2022-11-07T11:55:29.549Z,14.68
2022-11-07T11:56:29.546Z,14.73
2022-11-07T11:57:29.533Z,14.70
2022-11-07T11:58:29.732Z,14.70
2022-11-07T11:59:29.527Z,14.77
2022-11-07T12:00:29.514Z,14.70
2022-11-07T12:01:29.512Z,14.79
2022-11-07T12:02:29.591Z,14.78
2022-11-07T12:03:29.492Z,14.77
2022-11-07T12:04:29.480Z,14.88
2022-11-07T12:05:29.490Z,14.88
2022-11-07T12:06:29.471Z,14.97
2022-11-07T12:07:29.461Z,14.89
2022-11-07T12:08:29.520Z,14.94
2022-11-07T12:09:29.450Z,15.03
2022-11-07T12:10:29.448Z,14.97
2022-11-07T12:11:29.442Z,14.94
2022-11-07T12:12:29.431Z,14.94
2022-11-07T12:13:29.426Z,14.88
2022-11-07T12:14:29.418Z,14.86
2022-11-07T12:15:29.393Z,14.89
2022-11-07T12:16:29.384Z,14.82
2022-11-07T12:17:29.389Z,14.86
2022-11-07T12:18:29.394Z,14.84
2022-11-07T12:19:29.581Z,14.73
2022-11-07T12:20:29.364Z,14.65
2022-11-07T12:21:29.354Z,14.70
2022-11-07T12:22:29.352Z,14.70
2022-11-07T12:23:29.572Z,14.60
2022-11-07T12:24:29.350Z,14.63
2022-11-07T12:25:29.343Z,14.55
2022-11-07T12:26:29.327Z,14.55
2022-11-07T12:27:29.313Z,14.50
2022-11-07T12:28:29.313Z,14.55
2022-11-07T12:29:29.505Z,14.55
2022-11-07T12:30:29.489Z,14.48
2022-11-07T12:31:29.310Z,14.53
2022-11-07T12:32:29.274Z,14.44
2022-11-07T12:33:29.268Z,14.62
2022-11-07T12:34:29.266Z,14.50
2022-11-07T12:35:29.267Z,14.45
2022-11-07T12:36:29.263Z,14.53
2022-11-07T12:37:29.233Z,14.62
2022-11-07T12:38:29.225Z,14.45
2022-11-07T12:39:29.241Z,14.54
2022-11-07T12:40:29.241Z,14.55
2022-11-07T12:41:29.212Z,14.62
2022-11-07T12:42:29.215Z,14.59
2022-11-07T12:43:29.215Z,14.68
2022-11-07T12:44:29.180Z,14.60
2022-11-07T12:45:29.175Z,14.60
2022-11-07T12:46:29.164Z,14.70
2022-11-07T12:47:29.172Z,14.69
2022-11-07T12:48:29.159Z,14.68
2022-11-07T12:49:29.149Z,14.84
2022-11-07T12:50:29.139Z,14.82
2022-11-07T12:51:29.154Z,14.85
2022-11-07T12:52:29.137Z,14.92
2022-11-07T12:53:29.135Z,14.94
2022-11-07T12:54:29.111Z,14.94
2022-11-07T12:55:29.135Z,14.94
2022-11-07T12:56:29.134Z,15.06
2022-11-07T12:57:29.102Z,15.02
2022-11-07T12:58:29.107Z,15.00
2022-11-07T12:59:29.083Z,14.97
2022-11-07T13:00:30.491Z,14.99
2022-11-07T13:01:29.193Z,14.97
2022-11-07T13:02:29.160Z,14.92
2022-11-07T13:03:29.042Z,15.00
2022-11-07T13:04:29.049Z,15.09
2022-11-07T13:05:29.033Z,15.02
2022-11-07T13:06:29.043Z,15.06
2022-11-07T13:07:29.008Z,15.03
2022-11-07T13:08:34.618Z,15.00